Time;durP1;ratioP1;P1;durP2;ratioP2;P2;SDS_P1;SDS_P2;PMS_P1;PMS_P2;Temp;Humidity;BMP_temperature;BMP_pressure;BME280_temperature;BME280_humidity;BME280_pressure;Samples;Min_cycle;Max_cycle;Signal;HPM_P1;HPM_P2
2023/10/14 00:03:42;;;;;;;4.75;2.53;;;18.40;99.90;;;;;;8262386;28;20018;-86
2023/10/14 00:07:43;;;;;;;5.25;2.67;;;18.60;99.90;;;;;;8270076;28;20029;-85
2023/10/14 00:11:46;;;;;;;4.65;2.38;;;18.50;99.90;;;;;;8249667;28;20030;-85
2023/10/14 00:15:46;;;;;;;4.57;2.97;;;18.70;99.90;;;;;;8257410;28;20411;-85
2023/10/14 00:19:49;;;;;;;4.60;2.83;;;18.70;99.90;;;;;;8276166;28;20022;-84
2023/10/14 00:23:52;;;;;;;6.03;2.60;;;18.60;99.90;;;;;;8263233;28;20144;-84
2023/10/14 00:27:52;;;;;;;3.60;2.72;;;18.60;99.90;;;;;;8275548;28;20022;-85
2023/10/14 00:31:53;;;;;;;6.30;2.92;;;18.50;99.90;;;;;;8258162;28;20026;-85
2023/10/14 00:35:55;;;;;;;3.55;2.60;;;18.30;99.90;;;;;;8253321;28;20125;-86
2023/10/14 00:40:01;;;;;;;5.07;2.88;;;18.30;99.90;;;;;;8253718;28;20022;-85
2023/10/14 00:44:03;;;;;;;6.28;2.70;;;18.30;99.90;;;;;;8262559;28;20057;-85
2023/10/14 00:48:06;;;;;;;5.38;2.80;;;18.30;99.90;;;;;;8269758;28;20122;-86
2023/10/14 00:52:09;;;;;;;5.15;2.80;;;18.30;99.90;;;;;;8260092;28;20026;-85
2023/10/14 00:56:11;;;;;;;7.68;3.05;;;18.40;99.90;;;;;;8264652;28;20034;-86
2023/10/14 01:00:19;;;;;;;4.60;3.13;;;18.30;99.90;;;;;;8250204;28;20050;-85
2023/10/14 01:04:21;;;;;;;5.57;2.80;;;18.10;99.90;;;;;;8254785;28;20116;-85
2023/10/14 01:08:25;;;;;;;3.47;2.53;;;18.10;99.90;;;;;;8261117;28;20717;-86
2023/10/14 01:12:27;;;;;;;4.97;2.85;;;18.10;99.90;;;;;;8262061;28;20670;-85
2023/10/14 01:16:31;;;;;;;4.55;2.83;;;18.10;99.90;;;;;;8261811;28;20558;-86
2023/10/14 01:20:38;;;;;;;4.82;2.90;;;18.20;99.90;;;;;;8256962;28;20025;-86
2023/10/14 01:24:41;;;;;;;5.57;3.10;;;18.00;99.90;;;;;;8257048;28;20040;-87
2023/10/14 01:28:46;;;;;;;6.57;3.40;;;18.00;99.90;;;;;;8252246;28;20028;-86
2023/10/14 01:36:47;;;;;;;3.90;2.70;;;17.90;99.90;;;;;;8272078;28;20076;-86
2023/10/14 01:40:50;;;;;;;5.13;2.72;;;17.90;99.90;;;;;;8266157;28;20027;-86
2023/10/14 01:44:53;;;;;;;5.28;2.75;;;18.00;99.90;;;;;;8257174;28;20483;-86
2023/10/14 01:49:10;;;;;;;4.30;2.90;;;18.00;99.90;;;;;;8253437;28;20637;-85
2023/10/14 01:53:12;;;;;;;5.57;2.85;;;18.10;99.90;;;;;;8253237;28;20034;-86
2023/10/14 01:57:17;;;;;;;5.40;2.88;;;18.30;99.90;;;;;;8271201;28;20034;-86
2023/10/14 02:01:18;;;;;;;4.03;2.70;;;18.40;99.90;;;;;;8259220;28;20076;-86
2023/10/14 02:05:20;;;;;;;8.63;3.10;;;18.30;99.90;;;;;;8260959;28;20018;-87
2023/10/14 02:09:21;;;;;;;4.85;3.25;;;18.20;99.90;;;;;;8259780;28;20026;-86
2023/10/14 02:13:22;;;;;;;5.28;2.83;;;18.20;99.90;;;;;;8258946;28;20022;-86
2023/10/14 02:17:24;;;;;;;5.78;2.95;;;18.30;99.90;;;;;;8263072;28;20014;-86
2023/10/14 02:21:27;;;;;;;5.13;3.40;;;18.20;99.90;;;;;;8277542;28;20021;-87
2023/10/14 02:25:27;;;;;;;5.20;3.00;;;18.20;99.90;;;;;;8262910;28;20101;-85
2023/10/14 02:29:28;;;;;;;4.90;2.83;;;18.10;99.90;;;;;;8265851;28;20541;-85
2023/10/14 02:33:28;;;;;;;6.32;3.10;;;18.20;99.90;;;;;;8276487;28;20168;-86
2023/10/14 02:37:32;;;;;;;4.80;2.72;;;18.10;99.90;;;;;;8274059;28;20088;-86
2023/10/14 02:41:33;;;;;;;5.28;2.53;;;18.10;99.90;;;;;;8279268;28;20026;-86
2023/10/14 02:45:39;;;;;;;3.75;2.78;;;18.10;99.90;;;;;;8290189;28;20026;-86
2023/10/14 02:49:40;;;;;;;4.18;2.53;;;18.20;99.90;;;;;;8276755;28;20030;-86
2023/10/14 02:53:42;;;;;;;5.88;3.17;;;18.10;99.90;;;;;;8261760;28;20026;-85
2023/10/14 02:57:46;;;;;;;5.13;2.78;;;18.10;99.90;;;;;;8263084;28;20034;-85
2023/10/14 03:02:48;;;;;;;7.90;2.95;;;18.00;99.90;;;;;;8272889;28;20026;-85
2023/10/14 03:06:14;;;;;;;5.93;2.72;;;18.00;99.90;;;;;;8259898;28;20089;-86
2023/10/14 03:14:18;;;;;;;3.92;2.70;;;18.00;99.90;;;;;;8270197;28;20097;-86
2023/10/14 03:18:19;;;;;;;5.07;3.00;;;17.90;99.90;;;;;;8265319;28;20022;-86
2023/10/14 03:22:22;;;;;;;5.85;3.58;;;17.90;99.90;;;;;;8284002;28;20375;-86
2023/10/14 03:26:32;;;;;;;4.20;2.97;;;17.70;99.90;;;;;;8258255;28;20026;-86
2023/10/14 03:30:37;;;;;;;5.23;3.20;;;17.70;99.90;;;;;;8259432;28;20030;-86
2023/10/14 03:34:41;;;;;;;4.35;3.10;;;17.70;99.90;;;;;;8250545;28;20022;-86
2023/10/14 03:38:46;;;;;;;5.18;3.13;;;17.60;99.90;;;;;;8254773;28;20491;-86
2023/10/14 03:42:52;;;;;;;4.53;2.85;;;17.60;99.90;;;;;;8258240;28;20190;-86
2023/10/14 03:46:59;;;;;;;6.05;3.25;;;17.40;99.90;;;;;;8261204;28;20041;-87
2023/10/14 03:51:03;;;;;;;3.17;2.63;;;17.20;99.90;;;;;;8274989;28;20031;-85
2023/10/14 03:55:06;;;;;;;5.78;3.38;;;17.20;99.90;;;;;;8274970;28;20096;-87
2023/10/14 03:59:06;;;;;;;3.55;2.72;;;17.10;99.90;;;;;;8255233;28;20034;-85
2023/10/14 04:03:24;;;;;;;6.72;3.00;;;17.10;99.90;;;;;;8276142;28;20505;-85
2023/10/14 04:07:28;;;;;;;6.78;2.80;;;17.10;99.90;;;;;;8256105;28;20044;-86
2023/10/14 04:11:35;;;;;;;6.35;2.92;;;17.10;99.90;;;;;;8275299;28;20120;-85
2023/10/14 04:15:45;;;;;;;5.65;3.28;;;17.20;99.90;;;;;;8253757;28;20042;-86
2023/10/14 04:32:15;;;;;;;5.18;3.22;;;17.20;99.90;;;;;;8265847;28;20073;-84
2023/10/14 04:40:35;;;;;;;5.95;4.10;;;16.90;99.90;;;;;;8259411;28;20029;-86
2023/10/14 04:44:45;;;;;;;5.53;3.55;;;16.90;99.90;;;;;;8254072;28;20081;-85
2023/10/14 04:48:58;;;;;;;5.47;3.60;;;17.00;99.90;;;;;;8253288;28;20062;-87
2023/10/14 04:52:59;;;;;;;7.20;3.60;;;16.90;99.90;;;;;;8245465;28;20034;-85
2023/10/14 04:57:20;;;;;;;5.88;3.85;;;16.90;99.90;;;;;;8265863;28;20024;-85
2023/10/14 05:01:24;;;;;;;4.63;3.55;;;17.00;99.90;;;;;;8263304;28;20554;-85
2023/10/14 05:05:30;;;;;;;6.60;3.67;;;17.00;99.90;;;;;;8253939;28;20114;-85
2023/10/14 05:09:30;;;;;;;5.50;3.90;;;17.00;99.90;;;;;;8268024;28;20061;-85
2023/10/14 05:13:34;;;;;;;7.15;4.13;;;17.00;99.90;;;;;;8255314;28;20030;-85
2023/10/14 05:17:34;;;;;;;5.43;3.47;;;17.10;99.90;;;;;;8252063;28;20022;-84
2023/10/14 05:21:43;;;;;;;5.38;3.38;;;17.10;99.90;;;;;;8259906;28;20025;-86
2023/10/14 05:25:44;;;;;;;5.38;3.80;;;17.10;99.90;;;;;;8265797;28;20034;-86
2023/10/14 05:29:51;;;;;;;9.68;4.05;;;17.20;99.90;;;;;;8265614;28;20080;-84
2023/10/14 05:33:52;;;;;;;5.80;2.75;;;17.20;99.90;;;;;;8264511;28;20558;-86
2023/10/14 05:37:52;;;;;;;6.40;3.55;;;17.20;99.90;;;;;;8281129;28;20037;-85
2023/10/14 05:41:59;;;;;;;5.78;3.38;;;17.10;99.90;;;;;;8267773;28;20394;-84
2023/10/14 05:46:12;;;;;;;9.25;4.18;;;17.10;99.90;;;;;;8261623;28;20027;-83
2023/10/14 05:50:15;;;;;;;5.30;3.45;;;16.70;99.90;;;;;;8268393;28;20048;-84
2023/10/14 05:54:16;;;;;;;6.00;3.50;;;16.50;99.90;;;;;;8264634;28;20633;-83
2023/10/14 05:58:16;;;;;;;5.20;3.55;;;16.30;99.90;;;;;;8268861;28;20022;-85
2023/10/14 06:02:17;;;;;;;5.38;3.55;;;16.30;99.90;;;;;;8259244;28;20452;-81
2023/10/14 06:06:21;;;;;;;7.13;3.42;;;16.30;99.90;;;;;;8272155;28;20029;-82
2023/10/14 06:10:22;;;;;;;5.00;2.85;;;16.30;99.90;;;;;;8266554;28;20062;-84
2023/10/14 06:14:25;;;;;;;8.88;3.60;;;16.40;99.90;;;;;;8273485;28;20161;-83
2023/10/14 06:18:26;;;;;;;6.22;3.13;;;16.40;99.90;;;;;;8268930;28;20034;-84
2023/10/14 06:22:26;;;;;;;4.20;3.13;;;16.40;99.90;;;;;;8264706;28;20056;-84
2023/10/14 06:26:27;;;;;;;5.75;3.38;;;16.10;99.90;;;;;;8265122;28;20022;-84
2023/10/14 06:30:27;;;;;;;8.15;3.45;;;16.10;99.90;;;;;;8260714;28;20081;-83
2023/10/14 06:34:31;;;;;;;5.82;3.75;;;16.30;99.90;;;;;;8261797;28;20085;-84
2023/10/14 06:38:33;;;;;;;6.55;3.47;;;16.30;99.90;;;;;;8262922;28;20073;-84
2023/10/14 06:42:34;;;;;;;6.90;3.38;;;16.40;99.90;;;;;;8259886;28;20036;-83
2023/10/14 06:46:35;;;;;;;7.15;3.22;;;16.60;99.90;;;;;;8275544;28;20041;-82
2023/10/14 06:50:42;;;;;;;4.35;3.17;;;16.70;99.90;;;;;;8252382;28;20078;-81
2023/10/14 06:54:43;;;;;;;4.60;2.88;;;16.70;99.90;;;;;;8269806;28;20088;-82
2023/10/14 06:58:44;;;;;;;5.00;3.00;;;16.90;99.90;;;;;;8255641;28;20080;-83
2023/10/14 07:02:45;;;;;;;4.47;2.90;;;17.00;99.90;;;;;;8252892;28;20037;-84
2023/10/14 07:06:47;;;;;;;6.40;3.33;;;17.00;99.90;;;;;;8264093;28;20038;-83
2023/10/14 07:10:50;;;;;;;5.68;3.28;;;17.10;99.90;;;;;;8268134;28;20030;-81
2023/10/14 07:14:50;;;;;;;6.57;3.05;;;17.20;99.90;;;;;;8258864;28;20026;-83
2023/10/14 07:18:51;;;;;;;4.03;2.42;;;17.20;99.90;;;;;;8264163;28;20033;-81
2023/10/14 07:22:51;;;;;;;4.57;2.80;;;17.10;99.90;;;;;;8255515;28;20450;-84
2023/10/14 07:26:52;;;;;;;4.93;2.75;;;17.10;99.90;;;;;;8264072;28;20025;-84
2023/10/14 07:30:56;;;;;;;7.63;3.15;;;17.20;99.90;;;;;;8255560;28;20080;-85
2023/10/14 07:34:57;;;;;;;4.70;2.63;;;17.30;99.90;;;;;;8267539;28;20030;-84
2023/10/14 07:39:02;;;;;;;5.13;3.13;;;17.50;99.90;;;;;;8263143;28;20089;-84
2023/10/14 07:43:10;;;;;;;4.57;3.10;;;17.40;99.90;;;;;;8267865;28;20018;-84
2023/10/14 07:47:12;;;;;;;5.30;3.00;;;17.40;99.90;;;;;;8272507;28;20031;-84
2023/10/14 07:51:16;;;;;;;4.53;3.20;;;17.50;99.90;;;;;;8253067;28;20085;-85
2023/10/14 07:55:22;;;;;;;8.82;3.65;;;17.60;99.90;;;;;;8265734;28;20102;-85
2023/10/14 07:59:23;;;;;;;7.22;3.15;;;17.80;99.90;;;;;;8254261;28;20045;-85
2023/10/14 08:03:25;;;;;;;5.40;3.13;;;18.00;99.90;;;;;;8260502;28;20445;-84
2023/10/14 08:07:27;;;;;;;6.15;3.03;;;18.20;99.90;;;;;;8268303;28;20026;-84
2023/10/14 08:11:36;;;;;;;5.63;3.25;;;18.10;99.90;;;;;;8249517;28;20493;-84
2023/10/14 08:15:37;;;;;;;4.88;3.13;;;17.90;99.90;;;;;;8261342;28;20027;-84
2023/10/14 08:19:39;;;;;;;4.45;2.92;;;17.80;99.90;;;;;;8259685;28;20024;-85
2023/10/14 08:23:39;;;;;;;4.55;3.08;;;17.80;99.90;;;;;;8268913;28;20535;-84
2023/10/14 08:27:43;;;;;;;5.90;3.25;;;17.90;99.90;;;;;;8268738;28;20073;-84
2023/10/14 08:31:44;;;;;;;3.47;2.88;;;17.80;99.90;;;;;;8260806;28;20491;-84
2023/10/14 08:35:50;;;;;;;4.22;3.35;;;17.80;99.90;;;;;;8248981;28;20026;-90
2023/10/14 08:39:53;;;;;;;6.03;3.70;;;17.90;99.90;;;;;;8246963;28;20395;-90
2023/10/14 08:43:56;;;;;;;4.95;3.08;;;17.90;99.90;;;;;;8247411;28;20178;-87
2023/10/14 08:47:59;;;;;;;7.63;3.22;;;18.10;99.90;;;;;;8257027;28;20045;-88
2023/10/14 08:52:04;;;;;;;5.70;3.67;;;18.10;99.90;;;;;;8252937;28;20487;-88
2023/10/14 08:56:06;;;;;;;5.97;3.20;;;18.00;99.90;;;;;;8244251;28;20125;-86
2023/10/14 09:00:12;;;;;;;4.28;3.30;;;17.80;99.90;;;;;;8245674;28;20037;-89
2023/10/14 09:04:15;;;;;;;5.85;3.35;;;17.90;99.90;;;;;;8264591;28;20057;-85
2023/10/14 09:08:19;;;;;;;6.43;3.25;;;18.00;99.90;;;;;;8256780;28;20038;-86
2023/10/14 09:12:19;;;;;;;5.57;3.00;;;18.20;99.90;;;;;;8260342;28;20037;-88
2023/10/14 09:16:32;;;;;;;6.95;3.65;;;18.30;99.90;;;;;;8254705;28;20060;-87
2023/10/14 09:20:35;;;;;;;3.13;2.45;;;18.20;99.90;;;;;;8260963;28;20026;-86
2023/10/14 09:24:36;;;;;;;4.20;2.67;;;18.00;99.90;;;;;;8255322;28;20036;-86
2023/10/14 09:28:40;;;;;;;4.03;2.47;;;18.30;99.90;;;;;;8256774;28;20037;-87
2023/10/14 09:32:41;;;;;;;6.90;2.70;;;18.60;99.90;;;;;;8262847;28;20041;-85
2023/10/14 09:36:43;;;;;;;5.38;3.05;;;19.10;99.90;;;;;;8263315;28;20033;-87
2023/10/14 09:40:47;;;;;;;7.90;3.45;;;19.60;99.90;;;;;;8243749;28;20026;-88
2023/10/14 09:44:48;;;;;;;4.95;3.08;;;19.40;99.90;;;;;;8253836;28;20022;-85
2023/10/14 09:48:50;;;;;;;25.35;15.75;;;19.30;99.90;;;;;;8252034;28;20030;-89
2023/10/14 09:52:52;;;;;;;35.38;22.80;;;19.10;99.90;;;;;;8268874;28;20026;-87
2023/10/14 09:56:54;;;;;;;35.88;21.75;;;19.00;99.90;;;;;;8265366;28;20038;-89
2023/10/14 10:00:55;;;;;;;6.18;4.10;;;18.90;99.90;;;;;;8285545;28;20025;-87
2023/10/14 10:04:56;;;;;;;5.38;2.97;;;18.30;99.90;;;;;;8250185;28;20049;-88
2023/10/14 10:09:19;;;;;;;5.35;3.72;;;17.90;99.90;;;;;;8257908;28;20033;-87
2023/10/14 10:13:23;;;;;;;6.80;3.42;;;17.50;99.90;;;;;;8209547;28;1052049;-87
2023/10/14 10:17:24;;;;;;;9.10;3.30;;;17.30;99.90;;;;;;8255949;28;20026;-82
2023/10/14 10:21:43;;;;;;;4.88;3.25;;;17.10;99.90;;;;;;8249381;28;20033;-82
2023/10/14 10:25:49;;;;;;;5.50;3.20;;;16.90;99.90;;;;;;8266298;28;20030;-83
2023/10/14 10:29:55;;;;;;;8.02;4.00;;;16.80;99.90;;;;;;8252419;28;20089;-82
2023/10/14 10:33:59;;;;;;;6.75;3.33;;;16.80;99.90;;;;;;8257543;28;20072;-82
2023/10/14 10:38:00;;;;;;;4.95;3.28;;;17.00;99.90;;;;;;8279063;28;20026;-82
2023/10/14 10:42:01;;;;;;;6.50;3.35;;;17.20;99.90;;;;;;8276504;28;20030;-82
2023/10/14 10:46:03;;;;;;;6.40;3.53;;;17.30;99.90;;;;;;8279721;28;20610;-82
2023/10/14 10:50:04;;;;;;;5.25;3.28;;;17.60;99.90;;;;;;8258452;28;20066;-82
2023/10/14 10:54:05;;;;;;;5.88;2.90;;;18.30;99.90;;;;;;8263456;28;20045;-82
2023/10/14 10:58:08;;;;;;;4.97;2.85;;;19.60;99.90;;;;;;8260956;28;20420;-83
2023/10/14 11:02:09;;;;;;;3.17;2.58;;;19.40;99.90;;;;;;8270881;28;20022;-82
2023/10/14 11:06:13;;;;;;;5.90;2.92;;;18.60;99.90;;;;;;8274897;28;20057;-83
2023/10/14 11:10:14;;;;;;;4.03;3.10;;;18.40;99.90;;;;;;8266696;28;20375;-83
2023/10/14 11:14:17;;;;;;;6.57;3.20;;;18.20;99.90;;;;;;8268162;28;20021;-88
2023/10/14 11:18:18;;;;;;;5.35;3.45;;;17.70;99.90;;;;;;8255873;28;20023;-87
2023/10/14 11:22:20;;;;;;;4.47;3.28;;;17.50;99.90;;;;;;8262835;28;20471;-87
2023/10/14 11:26:21;;;;;;;4.40;3.50;;;17.30;99.90;;;;;;8270971;28;20112;-87
2023/10/14 11:30:28;;;;;;;5.65;3.42;;;17.10;99.90;;;;;;8264319;28;20502;-86
2023/10/14 11:34:35;;;;;;;6.47;3.30;;;16.80;99.90;;;;;;8249499;28;20034;-85
2023/10/14 11:38:43;;;;;;;3.72;2.80;;;16.80;99.90;;;;;;8258774;28;20026;-84
2023/10/14 11:42:44;;;;;;;3.80;3.05;;;16.60;99.90;;;;;;8249423;28;20483;-84
2023/10/14 11:46:45;;;;;;;5.47;3.20;;;17.20;99.90;;;;;;8262906;28;20026;-83
2023/10/14 11:50:47;;;;;;;4.15;2.65;;;18.30;99.90;;;;;;8242706;28;20093;-85
2023/10/14 11:54:50;;;;;;;5.22;2.80;;;19.80;99.90;;;;;;8277823;28;20019;-84
2023/10/14 11:58:51;;;;;;;5.15;2.47;;;19.30;99.90;;;;;;8256620;28;20394;-85
2023/10/14 12:02:52;;;;;;;2.78;2.35;;;18.70;99.90;;;;;;8266895;28;20052;-87
2023/10/14 12:06:53;;;;;;;4.75;3.05;;;18.60;99.90;;;;;;8263300;28;20041;-84
2023/10/14 12:10:54;;;;;;;3.50;2.63;;;18.30;99.90;;;;;;8261612;28;20045;-86
2023/10/14 12:14:54;;;;;;;4.00;2.97;;;18.50;99.90;;;;;;8249415;28;20034;-86
2023/10/14 12:18:58;;;;;;;4.13;2.53;;;18.90;99.90;;;;;;8251593;28;20038;-86
2023/10/14 12:22:59;;;;;;;3.10;2.17;;;19.20;99.90;;;;;;8257551;28;20030;-86
2023/10/14 12:26:59;;;;;;;4.93;2.65;;;19.40;99.90;;;;;;8247323;28;20033;-85
2023/10/14 12:31:09;;;;;;;3.42;2.10;;;19.30;99.90;;;;;;8240259;28;20117;-84
2023/10/14 12:35:11;;;;;;;2.58;2.00;;;19.40;99.90;;;;;;8246547;28;20061;-84
2023/10/14 12:39:26;;;;;;;4.40;2.15;;;19.20;99.90;;;;;;8249880;28;20029;-85
2023/10/14 12:43:33;;;;;;;5.07;2.25;;;19.30;99.90;;;;;;8267231;28;20031;-87
2023/10/14 12:47:33;;;;;;;3.85;2.47;;;19.20;99.90;;;;;;8247269;28;20045;-85
2023/10/14 12:51:37;;;;;;;3.63;2.10;;;19.10;99.90;;;;;;8268267;28;20022;-86
2023/10/14 12:55:49;;;;;;;4.53;2.08;;;19.30;99.90;;;;;;8255504;28;20156;-86
2023/10/14 12:59:49;;;;;;;2.40;1.73;;;20.20;99.90;;;;;;8254180;28;20113;-87
2023/10/14 13:03:56;;;;;;;3.25;2.20;;;20.60;99.90;;;;;;8257941;28;20101;-85
2023/10/14 13:07:57;;;;;;;3.10;1.92;;;21.20;99.90;;;;;;8270522;28;20029;-84
2023/10/14 13:11:57;;;;;;;2.92;1.65;;;21.60;99.90;;;;;;8270240;28;20033;-85
2023/10/14 13:15:58;;;;;;;2.35;1.70;;;21.40;99.90;;;;;;8269061;28;20053;-83
2023/10/14 13:19:58;;;;;;;3.42;1.75;;;22.10;99.90;;;;;;8253034;28;20030;-85
2023/10/14 13:24:07;;;;;;;2.60;1.80;;;22.60;99.90;;;;;;8269876;28;20033;-84
2023/10/14 13:28:09;;;;;;;1.58;0.60;;;22.70;99.90;;;;;;8253261;28;20030;-82
2023/10/14 13:32:14;;;;;;;0.30;0.10;;;19.70;99.90;;;;;;8258536;28;20033;-81
2023/10/14 13:36:15;;;;;;;0.20;0.20;;;17.50;99.90;;;;;;8254958;28;20387;-85
2023/10/14 13:40:23;;;;;;;0.25;0.17;;;16.10;99.90;;;;;;8280157;28;20037;-79
2023/10/14 13:44:24;;;;;;;0.10;0.10;;;15.20;99.90;;;;;;8261724;28;20585;-85
2023/10/14 13:48:24;;;;;;;0.47;0.22;;;14.20;99.90;;;;;;8256460;28;20018;-85
2023/10/14 13:52:25;;;;;;;0.15;0.15;;;13.80;99.90;;;;;;8275067;28;20018;-85
2023/10/14 13:56:26;;;;;;;2.72;0.30;;;13.70;99.90;;;;;;8275879;28;20025;-85
2023/10/14 14:00:35;;;;;;;0.20;0.20;;;13.60;99.90;;;;;;8273175;28;20049;-87
2023/10/14 14:04:36;;;;;;;0.50;0.30;;;13.60;99.90;;;;;;8291082;28;20050;-88
2023/10/14 14:08:37;;;;;;;0.52;0.25;;;13.60;99.90;;;;;;8266611;28;20442;-86
2023/10/14 14:12:38;;;;;;;0.75;0.30;;;13.60;99.90;;;;;;8276194;28;20123;-87
2023/10/14 14:16:39;;;;;;;0.38;0.30;;;13.60;99.90;;;;;;8278049;28;20022;-86
2023/10/14 14:20:40;;;;;;;0.43;0.22;;;13.70;99.90;;;;;;8260583;28;20113;-86
2023/10/14 14:24:42;;;;;;;1.40;0.28;;;13.80;99.90;;;;;;8281118;28;20025;-86
2023/10/14 14:28:43;;;;;;;0.75;0.55;;;14.00;99.90;;;;;;8260737;28;20394;-86
2023/10/14 14:32:44;;;;;;;1.13;0.50;;;13.80;99.90;;;;;;8270676;28;20019;-85
2023/10/14 14:36:44;;;;;;;0.80;0.50;;;13.90;99.90;;;;;;8268606;28;20413;-84
2023/10/14 14:40:45;;;;;;;1.92;0.50;;;14.10;99.90;;;;;;8272280;28;20022;-86
2023/10/14 14:44:45;;;;;;;0.77;0.25;;;14.00;99.90;;;;;;8264165;28;20073;-83
2023/10/14 14:48:48;;;;;;;1.10;0.50;;;13.80;99.90;;;;;;8258465;28;20033;-84
2023/10/14 14:52:49;;;;;;;0.68;0.30;;;13.70;99.90;;;;;;8264286;28;20409;-83
2023/10/14 14:56:50;;;;;;;4.20;0.35;;;13.70;99.90;;;;;;8289031;28;20025;-83
2023/10/14 15:00:51;;;;;;;0.40;0.30;;;13.70;99.90;;;;;;8258535;28;20556;-84
2023/10/14 15:04:52;;;;;;;0.70;0.50;;;13.80;99.90;;;;;;8272129;28;20064;-83
2023/10/14 15:08:52;;;;;;;0.22;0.22;;;13.70;99.90;;;;;;8262194;28;20030;-84
2023/10/14 15:12:54;;;;;;;0.35;0.35;;;13.90;99.90;;;;;;8271187;28;20117;-84
2023/10/14 15:16:55;;;;;;;0.30;0.20;;;13.90;99.90;;;;;;8256677;28;20026;-84
2023/10/14 15:20:56;;;;;;;0.70;0.40;;;13.90;99.90;;;;;;8273581;28;20042;-87
2023/10/14 15:24:56;;;;;;;0.80;0.30;;;14.20;99.90;;;;;;8274041;28;20022;-87
2023/10/14 15:28:57;;;;;;;0.28;0.28;;;14.00;99.90;;;;;;8261621;28;20065;-85
2023/10/14 15:32:58;;;;;;;0.90;0.45;;;14.00;99.90;;;;;;8287761;28;20037;-84
2023/10/14 15:36:58;;;;;;;0.50;0.40;;;13.80;99.90;;;;;;8260572;28;20121;-86
2023/10/14 15:41:01;;;;;;;0.47;0.25;;;13.50;99.90;;;;;;8267634;28;20062;-84
2023/10/14 15:45:02;;;;;;;0.17;0.17;;;13.00;99.90;;;;;;8256057;28;20030;-85
2023/10/14 15:49:03;;;;;;;0.40;0.30;;;12.70;99.90;;;;;;8256161;28;20038;-85
2023/10/14 15:53:08;;;;;;;0.52;0.30;;;12.50;99.90;;;;;;8265407;28;20041;-84
2023/10/14 15:57:09;;;;;;;0.40;0.20;;;12.30;99.90;;;;;;8253041;28;20053;-84
2023/10/14 16:01:09;;;;;;;1.75;0.43;;;12.10;99.90;;;;;;8270426;28;20022;-84
2023/10/14 16:05:10;;;;;;;0.80;0.47;;;12.00;99.90;;;;;;8250062;28;20519;-83
2023/10/14 16:09:10;;;;;;;0.98;0.65;;;11.80;99.90;;;;;;8257020;28;20114;-83
2023/10/14 16:13:14;;;;;;;0.73;0.40;;;11.60;99.90;;;;;;8278920;28;20050;-85
2023/10/14 16:17:16;;;;;;;1.13;0.98;;;11.50;99.90;;;;;;8268010;28;20088;-84
2023/10/14 16:21:17;;;;;;;1.90;0.63;;;11.30;99.90;;;;;;8267285;28;20527;-84
2023/10/14 16:25:21;;;;;;;3.20;0.80;;;11.10;99.90;;;;;;8262222;28;20022;-83
2023/10/14 16:29:22;;;;;;;0.82;0.50;;;11.00;99.90;;;;;;8256567;28;20053;-83
2023/10/14 16:33:22;;;;;;;1.40;0.90;;;11.00;99.90;;;;;;8280523;28;20026;-83
2023/10/14 16:37:23;;;;;;;1.67;0.82;;;10.90;99.90;;;;;;8265608;28;20026;-83
2023/10/14 16:41:24;;;;;;;2.20;0.90;;;10.70;99.90;;;;;;8272364;28;20495;-82
2023/10/14 16:45:28;;;;;;;3.80;0.80;;;10.50;99.90;;;;;;8275952;28;20018;-80
2023/10/14 16:49:32;;;;;;;4.20;1.05;;;10.40;99.90;;;;;;8259586;28;20035;-80
2023/10/14 16:53:34;;;;;;;2.67;1.23;;;10.30;99.90;;;;;;8275691;28;20502;-80
2023/10/14 16:57:35;;;;;;;1.73;0.90;;;10.30;99.90;;;;;;8261273;28;20034;-81
2023/10/14 17:01:36;;;;;;;3.88;1.40;;;10.40;99.90;;;;;;8272401;28;20029;-80
2023/10/14 17:05:38;;;;;;;2.97;1.10;;;10.40;99.90;;;;;;8255864;28;20068;-81
2023/10/14 17:09:38;;;;;;;1.13;0.75;;;10.20;99.90;;;;;;8279684;28;20026;-79
2023/10/14 17:13:40;;;;;;;4.43;1.40;;;10.10;99.90;;;;;;8251251;28;20109;-80
2023/10/14 17:17:41;;;;;;;2.17;1.00;;;9.80;99.90;;;;;;8260187;28;20049;-80
2023/10/14 17:21:42;;;;;;;3.42;1.40;;;9.60;99.90;;;;;;8267337;28;20022;-80
2023/10/14 17:25:42;;;;;;;2.38;1.30;;;9.50;99.90;;;;;;8266166;28;20390;-79
2023/10/14 17:29:43;;;;;;;3.42;2.03;;;9.30;99.90;;;;;;8270510;28;20030;-80
2023/10/14 17:33:46;;;;;;;3.10;1.40;;;9.20;99.90;;;;;;8246660;28;20057;-78
2023/10/14 17:37:48;;;;;;;3.55;1.85;;;9.00;99.90;;;;;;8270373;28;20026;-79
2023/10/14 17:41:48;;;;;;;3.05;1.60;;;9.00;99.90;;;;;;8258288;28;20494;-80
2023/10/14 17:45:51;;;;;;;2.72;1.60;;;9.10;99.90;;;;;;8251709;28;20030;-80
2023/10/14 17:49:51;;;;;;;7.72;1.58;;;9.40;99.90;;;;;;8263204;28;20065;-80
2023/10/14 17:53:52;;;;;;;3.70;1.45;;;9.30;99.90;;;;;;8255316;28;20045;-80
2023/10/14 17:57:57;;;;;;;4.38;1.75;;;9.50;99.90;;;;;;8246855;28;20026;-80
2023/10/14 18:01:58;;;;;;;4.03;1.67;;;9.40;99.90;;;;;;8259722;28;20129;-79
2023/10/14 18:06:02;;;;;;;5.70;2.13;;;9.60;99.90;;;;;;8248678;28;20046;-80
2023/10/14 18:10:06;;;;;;;2.10;1.50;;;9.50;99.90;;;;;;8249018;28;20026;-80
2023/10/14 18:14:06;;;;;;;2.97;2.22;;;9.60;99.90;;;;;;8256643;28;20083;-80
2023/10/14 18:18:08;;;;;;;7.07;1.85;;;9.60;99.90;;;;;;8253825;28;20026;-80
2023/10/14 18:22:08;;;;;;;5.38;1.77;;;9.70;99.90;;;;;;8251141;28;20057;-80
2023/10/14 18:26:10;;;;;;;3.75;2.22;;;9.50;99.90;;;;;;8255782;28;20110;-80
2023/10/14 18:30:16;;;;;;;4.03;1.80;;;9.50;99.90;;;;;;8248898;28;20026;-81
2023/10/14 18:34:17;;;;;;;1.88;1.45;;;9.60;99.90;;;;;;8255280;28;20027;-79
2023/10/14 18:38:18;;;;;;;4.25;1.75;;;9.80;99.90;;;;;;8280465;28;20025;-80
2023/10/14 18:42:18;;;;;;;4.32;1.67;;;9.80;99.90;;;;;;8253011;28;20026;-79
2023/10/14 18:46:19;;;;;;;5.38;1.80;;;9.50;99.90;;;;;;8261791;28;20018;-80
2023/10/14 18:50:24;;;;;;;3.67;1.67;;;9.40;99.90;;;;;;8260187;28;20113;-79
2023/10/14 18:54:31;;;;;;;2.47;1.42;;;9.30;99.90;;;;;;8264034;28;20018;-80
2023/10/14 18:58:32;;;;;;;5.60;1.67;;;9.10;99.90;;;;;;8283064;28;20057;-79
2023/10/14 19:02:32;;;;;;;3.33;1.75;;;8.90;99.90;;;;;;8267345;28;20021;-79
2023/10/14 19:06:33;;;;;;;4.38;1.80;;;9.00;99.90;;;;;;8265085;28;20105;-80
2023/10/14 19:10:39;;;;;;;3.70;1.60;;;9.00;99.90;;;;;;8270986;28;20034;-79
2023/10/14 19:14:40;;;;;;;4.57;2.08;;;8.70;99.90;;;;;;8252227;28;20032;-79
2023/10/14 19:18:40;;;;;;;2.97;1.60;;;8.50;99.90;;;;;;8267187;28;20030;-79
2023/10/14 19:23:11;;;;;;;3.78;1.58;;;8.60;99.90;;;;;;8261688;28;20026;-80
2023/10/14 19:27:12;;;;;;;2.95;1.70;;;8.60;99.90;;;;;;8278640;28;20069;-80
2023/10/14 19:31:14;;;;;;;5.32;1.75;;;8.50;99.90;;;;;;8272782;28;20030;-79
2023/10/14 19:35:15;;;;;;;4.38;1.90;;;8.50;99.90;;;;;;8275391;28;20077;-79
2023/10/14 19:39:16;;;;;;;2.67;1.60;;;8.30;99.90;;;;;;8263229;28;20125;-79
2023/10/14 19:43:16;;;;;;;4.18;1.98;;;8.30;99.90;;;;;;8254161;28;20363;-79
2023/10/14 19:47:17;;;;;;;2.35;1.77;;;8.40;99.90;;;;;;8265599;28;20026;-80
2023/10/14 19:51:17;;;;;;;3.72;1.65;;;8.50;99.90;;;;;;8259088;28;20063;-80
2023/10/14 19:55:32;;;;;;;2.75;1.80;;;8.60;99.90;;;;;;8267957;28;20053;-79
2023/10/14 19:59:34;;;;;;;3.70;1.83;;;8.70;99.90;;;;;;8253776;28;20716;-79
2023/10/14 20:03:34;;;;;;;4.22;1.85;;;8.70;99.90;;;;;;8277405;28;20018;-79
2023/10/14 20:07:35;;;;;;;4.45;1.85;;;8.60;99.90;;;;;;8277401;28;20386;-79
2023/10/14 20:11:37;;;;;;;5.15;2.58;;;8.70;99.90;;;;;;8261465;28;20030;-79
2023/10/14 20:15:40;;;;;;;4.07;1.73;;;8.70;99.90;;;;;;8265604;28;20513;-79
2023/10/14 20:19:41;;;;;;;3.03;1.70;;;8.60;99.90;;;;;;8264303;28;20022;-80
2023/10/14 20:23:42;;;;;;;5.68;1.83;;;8.60;99.90;;;;;;8266519;28;20571;-80
2023/10/14 20:27:43;;;;;;;3.60;1.67;;;8.90;99.90;;;;;;8278401;28;20398;-79
2023/10/14 20:31:43;;;;;;;5.13;1.88;;;9.00;99.90;;;;;;8276610;28;20025;-79
2023/10/14 20:35:44;;;;;;;3.28;1.52;;;9.10;99.90;;;;;;8274328;28;20136;-80
2023/10/14 20:39:48;;;;;;;4.68;1.70;;;9.10;99.90;;;;;;8275059;28;20022;-79
2023/10/14 20:43:49;;;;;;;4.65;1.98;;;9.10;99.90;;;;;;8256692;28;20490;-80
2023/10/14 20:47:54;;;;;;;4.00;1.83;;;8.80;99.90;;;;;;8264706;28;20029;-80
2023/10/14 20:51:54;;;;;;;4.00;1.75;;;8.80;99.90;;;;;;8263343;28;20562;-79
2023/10/14 20:55:55;;;;;;;3.58;1.70;;;8.90;99.90;;;;;;8265539;28;20037;-79
2023/10/14 20:59:58;;;;;;;3.20;2.08;;;9.00;99.90;;;;;;8267768;28;20026;-80
2023/10/14 21:04:00;;;;;;;4.30;2.03;;;9.10;99.90;;;;;;8266734;28;20030;-80
2023/10/14 21:08:01;;;;;;;4.40;1.63;;;9.30;99.90;;;;;;8263369;28;20061;-80
2023/10/14 21:12:03;;;;;;;2.25;1.45;;;9.40;99.90;;;;;;8256632;28;20065;-80
2023/10/14 21:16:07;;;;;;;4.22;1.35;;;9.50;99.90;;;;;;8262004;28;20049;-79
2023/10/14 21:20:09;;;;;;;7.00;1.80;;;9.40;99.90;;;;;;8255707;28;20406;-80
2023/10/14 21:24:10;;;;;;;2.88;1.40;;;9.30;99.90;;;;;;8266488;28;20498;-81
2023/10/14 21:28:14;;;;;;;5.70;1.58;;;9.20;99.90;;;;;;8275819;28;20029;-80
2023/10/14 21:32:14;;;;;;;3.95;1.50;;;8.90;99.90;;;;;;8267517;28;20026;-80